Terminal Aerodrome Forecast
Issued by NWS

Home | Current Version | Previous Version | Graphics & Text | Print | Product List | Glossary On
Versions: 1 2 3 4 5 6 7 8 9 10 11 12 13 14 15 16 17 18 19 20 21 22 23
000
FTUS42 KMHX 251732
TAFPGV
TAF
KPGV 251732Z 2518/2618 15007KT P6SM SCT040 BKN100
     FM260700 20009KT 6SM -SHRA SCT020 OVC040
     FM261100 21013G23KT 5SM SHRA SCT015 BKN030
      AMD LTD TO CLD VIS AND WIND=

USA.gov is the U.S. government's official web portal to all federal, state and local government web resources and services.